logo dgac
Martes 23 de Julio del 2019
Buscar por aerodromo o helipuerto
Ingrese nombre de aeródromo, localidad o designador OACI:
METAR del 23-07-2019 a las 10:00 UTC
METAR SCSN 231000Z AUTO VRB02KT CAVOK 00/M00 Q1022
Nan: AUTO
Viento: dirección variable, velocidad 2 nudos
Visibilidad: 10 km o más,
    sin nubes bajo los 5.000 pies o bajo del MSA (Mínimo de Seguridad del Aeródromo),
    sin cumulonimbus, y sin fenómenos de tiempo significativo en el aeródromo o alrededores
Temperatura: 0 °C
Rocío: -0 °C
Humedad_relativa: 100%
Presión: 1022 hPa
METAR del 23-07-2019 a las 09:00 UTC
METAR SCSN 230900Z AUTO VRB01KT CAVOK 02/02 Q1021
Nan: AUTO
Viento: dirección variable, velocidad 1 nudos
Visibilidad: 10 km o más,
    sin nubes bajo los 5.000 pies o bajo del MSA (Mínimo de Seguridad del Aeródromo),
    sin cumulonimbus, y sin fenómenos de tiempo significativo en el aeródromo o alrededores
Temperatura: 2 °C
Rocío: 2 °C
Humedad_relativa: 100%
Presión: 1021 hPa
METAR del 23-07-2019 a las 08:00 UTC
METAR SCSN 230800Z AUTO 09003KT 060V120 CAVOK 02/02 Q1021
Nan: AUTO
Viento: dirección 090 grados, velocidad 3 nudos
Viento con dirección variable entre 060 y 120 grados
Visibilidad: 10 km o más,
    sin nubes bajo los 5.000 pies o bajo del MSA (Mínimo de Seguridad del Aeródromo),
    sin cumulonimbus, y sin fenómenos de tiempo significativo en el aeródromo o alrededores
Temperatura: 2 °C
Rocío: 2 °C
Humedad_relativa: 100%
Presión: 1021 hPa
METAR del 23-07-2019 a las 08:00 UTC
METAR SCSN 230800Z AUTO 09003KT 060V120 CAVOK 02/02 Q1021
Nan: AUTO
Viento: dirección 090 grados, velocidad 3 nudos
Viento con dirección variable entre 060 y 120 grados
Visibilidad: 10 km o más,
    sin nubes bajo los 5.000 pies o bajo del MSA (Mínimo de Seguridad del Aeródromo),
    sin cumulonimbus, y sin fenómenos de tiempo significativo en el aeródromo o alrededores
Temperatura: 2 °C
Rocío: 2 °C
Humedad_relativa: 100%
Presión: 1021 hPa
METAR del 23-07-2019 a las 07:00 UTC
METAR SCSN 230700Z AUTO VRB02KT CAVOK 03/02 Q1021
Nan: AUTO
Viento: dirección variable, velocidad 2 nudos
Visibilidad: 10 km o más,
    sin nubes bajo los 5.000 pies o bajo del MSA (Mínimo de Seguridad del Aeródromo),
    sin cumulonimbus, y sin fenómenos de tiempo significativo en el aeródromo o alrededores
Temperatura: 3 °C
Rocío: 2 °C
Humedad_relativa: 93%
Presión: 1021 hPa
METAR del 23-07-2019 a las 06:00 UTC
METAR SCSN 230600Z AUTO VRB02KT CAVOK 04/03 Q1022
Nan: AUTO
Viento: dirección variable, velocidad 2 nudos
Visibilidad: 10 km o más,
    sin nubes bajo los 5.000 pies o bajo del MSA (Mínimo de Seguridad del Aeródromo),
    sin cumulonimbus, y sin fenómenos de tiempo significativo en el aeródromo o alrededores
Temperatura: 4 °C
Rocío: 3 °C
Humedad_relativa: 93%
Presión: 1022 hPa
METAR del 23-07-2019 a las 05:00 UTC
METAR SCSN 230500Z AUTO 16003KT 130V190 CAVOK 04/02 Q1021
Nan: AUTO
Viento: dirección 160 grados, velocidad 3 nudos
Viento con dirección variable entre 130 y 190 grados
Visibilidad: 10 km o más,
    sin nubes bajo los 5.000 pies o bajo del MSA (Mínimo de Seguridad del Aeródromo),
    sin cumulonimbus, y sin fenómenos de tiempo significativo en el aeródromo o alrededores
Temperatura: 4 °C
Rocío: 2 °C
Humedad_relativa: 87%
Presión: 1021 hPa
METAR del 23-07-2019 a las 04:00 UTC
METAR SCSN 230400Z AUTO 23003KT 190V250 CAVOK 04/03 Q1022
Nan: AUTO
Viento: dirección 230 grados, velocidad 3 nudos
Viento con dirección variable entre 190 y 250 grados
Visibilidad: 10 km o más,
    sin nubes bajo los 5.000 pies o bajo del MSA (Mínimo de Seguridad del Aeródromo),
    sin cumulonimbus, y sin fenómenos de tiempo significativo en el aeródromo o alrededores
Temperatura: 4 °C
Rocío: 3 °C
Humedad_relativa: 93%
Presión: 1022 hPa
METAR del 23-07-2019 a las 03:00 UTC
METAR SCSN 230300Z AUTO VRB01KT CAVOK 03/03 Q1022
Nan: AUTO
Viento: dirección variable, velocidad 1 nudos
Visibilidad: 10 km o más,
    sin nubes bajo los 5.000 pies o bajo del MSA (Mínimo de Seguridad del Aeródromo),
    sin cumulonimbus, y sin fenómenos de tiempo significativo en el aeródromo o alrededores
Temperatura: 3 °C
Rocío: 3 °C
Humedad_relativa: 100%
Presión: 1022 hPa
METAR del 23-07-2019 a las 02:00 UTC
METAR SCSN 230200Z AUTO VRB02KT CAVOK 05/04 Q1021
Nan: AUTO
Viento: dirección variable, velocidad 2 nudos
Visibilidad: 10 km o más,
    sin nubes bajo los 5.000 pies o bajo del MSA (Mínimo de Seguridad del Aeródromo),
    sin cumulonimbus, y sin fenómenos de tiempo significativo en el aeródromo o alrededores
Temperatura: 5 °C
Rocío: 4 °C
Humedad_relativa: 93%
Presión: 1021 hPa